Time;durP1;ratioP1;P1;durP2;ratioP2;P2;SDS_P1;SDS_P2;PMS_P1;PMS_P2;Temp;Humidity;BMP_temperature;BMP_pressure;BME280_temperature;BME280_humidity;BME280_pressure;Samples;Min_cycle;Max_cycle;Signal;HPM_P1;HPM_P2
2022/04/22 00:02:09;;;;;;;10.10;5.37;;;8.40;94.10;;;;;;615980;232;26913;-70
2022/04/22 00:04:37;;;;;;;11.80;5.85;;;8.40;94.40;;;;;;615936;232;26603;-70
2022/04/22 00:07:05;;;;;;;10.98;5.25;;;8.30;94.30;;;;;;615932;233;26862;-70
2022/04/22 00:09:32;;;;;;;7.18;5.03;;;8.30;93.70;;;;;;615661;233;26575;-70
2022/04/22 00:11:59;;;;;;;8.60;5.87;;;8.30;94.80;;;;;;615656;233;26806;-70
2022/04/22 00:14:27;;;;;;;7.30;5.37;;;8.20;94.20;;;;;;615590;233;26577;-70
2022/04/22 00:16:55;;;;;;;9.13;5.15;;;8.10;93.90;;;;;;615695;233;26576;-70
2022/04/22 00:19:22;;;;;;;7.68;5.47;;;8.10;93.80;;;;;;615623;233;26576;-70
2022/04/22 00:21:50;;;;;;;6.10;4.50;;;8.00;95.70;;;;;;615661;234;26546;-70
2022/04/22 00:24:17;;;;;;;8.75;5.00;;;7.90;95.10;;;;;;615641;233;26807;-70
2022/04/22 00:26:44;;;;;;;5.20;4.72;;;7.90;94.90;;;;;;615638;228;26570;-70
2022/04/22 00:29:11;;;;;;;11.32;5.12;;;7.80;95.00;;;;;;615676;234;26799;-70
2022/04/22 00:31:39;;;;;;;7.07;5.45;;;7.50;95.30;;;;;;615630;233;26578;-70
2022/04/22 00:34:07;;;;;;;5.62;5.00;;;7.50;96.00;;;;;;615659;228;26550;-70
2022/04/22 00:36:34;;;;;;;9.20;5.00;;;7.50;96.10;;;;;;615596;234;26557;-70
2022/04/22 00:39:02;;;;;;;8.10;5.32;;;7.50;96.10;;;;;;615621;234;26576;-70
2022/04/22 00:41:29;;;;;;;6.20;4.70;;;7.40;95.40;;;;;;615605;234;26831;-71
2022/04/22 00:43:56;;;;;;;7.55;4.95;;;7.40;95.70;;;;;;615930;231;26555;-70
2022/04/22 00:46:23;;;;;;;6.25;5.45;;;7.30;95.60;;;;;;617081;233;26631;-70
2022/04/22 00:48:51;;;;;;;5.95;5.03;;;7.20;96.70;;;;;;616744;233;26618;-70
2022/04/22 00:51:21;;;;;;;6.87;4.93;;;7.10;96.30;;;;;;616537;233;26555;-70
2022/04/22 00:53:47;;;;;;;6.00;4.60;;;7.10;96.30;;;;;;616183;233;26782;-70
2022/04/22 00:56:14;;;;;;;5.10;4.60;;;7.10;97.70;;;;;;616265;233;26561;-70
2022/04/22 00:58:42;;;;;;;5.80;4.75;;;7.00;97.40;;;;;;616192;232;27222;-71
2022/04/22 01:01:09;;;;;;;4.87;4.40;;;7.00;97.30;;;;;;616183;232;26612;-71
2022/04/22 01:03:36;;;;;;;6.75;4.50;;;6.90;97.50;;;;;;616008;232;26866;-71
2022/04/22 01:11:10;;;;;;;4.75;4.25;;;6.80;98.60;;;;;;615981;233;26858;-69
2022/04/22 01:13:37;;;;;;;5.50;4.90;;;6.80;98.80;;;;;;615908;232;26659;-69
2022/04/22 01:16:05;;;;;;;8.00;4.75;;;6.70;98.00;;;;;;615728;232;26859;-69
2022/04/22 01:18:33;;;;;;;5.10;4.60;;;6.60;98.20;;;;;;615727;233;26609;-69
2022/04/22 01:21:01;;;;;;;7.00;5.05;;;6.60;99.10;;;;;;615500;232;26525;-69
2022/04/22 01:23:28;;;;;;;5.10;4.50;;;6.50;99.00;;;;;;615469;233;26575;-70
2022/04/22 01:25:56;;;;;;;6.62;4.82;;;6.50;99.40;;;;;;615606;234;26581;-70
2022/04/22 01:28:23;;;;;;;5.32;4.53;;;6.50;99.40;;;;;;615507;233;26931;-70
2022/04/22 01:30:49;;;;;;;4.90;4.05;;;6.50;99.30;;;;;;615586;234;26552;-70
2022/04/22 01:33:16;;;;;;;6.55;4.10;;;6.40;99.60;;;;;;615311;234;26799;-70
2022/04/22 01:35:44;;;;;;;7.80;4.47;;;6.30;99.50;;;;;;615646;234;26593;-70
2022/04/22 01:38:12;;;;;;;7.75;4.30;;;6.30;99.90;;;;;;615648;233;26588;-70
2022/04/22 01:40:40;;;;;;;4.62;4.22;;;6.30;99.90;;;;;;615642;233;26830;-70
2022/04/22 01:43:08;;;;;;;4.90;4.40;;;6.30;99.80;;;;;;615622;234;26574;-70
2022/04/22 01:45:34;;;;;;;6.37;4.62;;;6.30;99.90;;;;;;615614;234;26803;-70
2022/04/22 01:48:01;;;;;;;5.00;4.07;;;6.30;99.90;;;;;;615642;233;26588;-69
2022/04/22 01:50:28;;;;;;;8.10;4.37;;;6.30;99.90;;;;;;615650;233;26561;-70
2022/04/22 01:52:56;;;;;;;4.35;3.83;;;6.40;99.90;;;;;;615664;233;26553;-70
2022/04/22 01:55:26;;;;;;;4.55;4.15;;;6.40;99.90;;;;;;615970;231;26552;-70
2022/04/22 01:57:53;;;;;;;5.87;3.97;;;6.40;99.90;;;;;;617057;233;26849;-70
2022/04/22 02:00:19;;;;;;;4.80;4.30;;;6.50;99.90;;;;;;616673;233;26623;-70
2022/04/22 02:02:46;;;;;;;4.65;4.22;;;6.40;99.90;;;;;;616549;232;26528;-70
2022/04/22 02:05:14;;;;;;;4.80;4.28;;;6.50;99.90;;;;;;616322;228;26571;-70
2022/04/22 02:07:43;;;;;;;4.47;3.97;;;6.50;99.90;;;;;;616171;233;26592;-70
2022/04/22 02:10:10;;;;;;;4.80;3.97;;;6.40;99.90;;;;;;616146;233;26818;-71
2022/04/22 02:12:38;;;;;;;4.55;4.05;;;6.40;99.90;;;;;;616227;232;26537;-70
2022/04/22 02:15:06;;;;;;;4.35;3.70;;;6.40;99.90;;;;;;615897;232;26624;-70
2022/04/22 02:17:33;;;;;;;5.50;3.75;;;6.40;99.90;;;;;;615939;232;26634;-70
2022/04/22 02:20:01;;;;;;;3.97;3.67;;;6.30;99.90;;;;;;615883;232;26841;-70
2022/04/22 02:22:28;;;;;;;4.12;3.72;;;6.30;99.90;;;;;;615950;233;26615;-71
2022/04/22 02:24:57;;;;;;;5.30;3.90;;;6.40;99.90;;;;;;615861;233;26599;-70
2022/04/22 02:29:56;;;;;;;3.47;3.15;;;6.50;99.90;;;;;;615976;233;26857;-71
2022/04/22 02:32:23;;;;;;;6.07;3.83;;;6.40;99.90;;;;;;615771;233;26900;-71
2022/04/22 02:34:50;;;;;;;5.75;3.70;;;6.40;99.90;;;;;;615635;234;26564;-71
2022/04/22 02:37:17;;;;;;;4.10;3.80;;;6.50;99.90;;;;;;615688;233;26813;-70
2022/04/22 02:39:45;;;;;;;4.37;3.97;;;6.50;99.90;;;;;;615630;234;26549;-71
2022/04/22 02:47:18;;;;;;;5.20;3.55;;;6.60;99.90;;;;;;615598;233;26576;-71
2022/04/22 02:49:46;;;;;;;3.30;3.00;;;6.60;99.90;;;;;;615640;233;26572;-71
2022/04/22 02:52:13;;;;;;;3.80;3.40;;;6.60;99.90;;;;;;615616;234;26790;-71
2022/04/22 02:54:41;;;;;;;8.30;3.33;;;6.60;99.90;;;;;;615619;233;26573;-70
2022/04/22 02:57:09;;;;;;;3.20;3.00;;;6.60;99.90;;;;;;615659;234;26588;-70
2022/04/22 02:59:37;;;;;;;4.07;3.33;;;6.60;99.90;;;;;;615669;233;26569;-70
2022/04/22 03:02:05;;;;;;;4.35;3.12;;;6.60;99.90;;;;;;615632;233;26561;-71
2022/04/22 03:04:32;;;;;;;3.53;3.22;;;6.60;99.90;;;;;;615934;234;26572;-71
2022/04/22 03:06:59;;;;;;;3.67;3.37;;;6.70;99.90;;;;;;616315;231;26556;-70
2022/04/22 03:09:27;;;;;;;3.70;3.22;;;6.60;99.90;;;;;;617583;232;26584;-70
2022/04/22 03:11:54;;;;;;;4.00;3.58;;;6.60;99.90;;;;;;617180;233;26582;-71
2022/04/22 03:14:21;;;;;;;3.42;3.12;;;6.60;99.90;;;;;;616880;232;26586;-71
2022/04/22 03:16:49;;;;;;;3.55;3.25;;;6.60;99.90;;;;;;616747;233;27035;-71
2022/04/22 03:19:16;;;;;;;3.75;3.45;;;6.60;99.90;;;;;;616627;233;26521;-71
2022/04/22 03:21:43;;;;;;;2.90;2.67;;;6.60;99.90;;;;;;616619;232;26545;-70
2022/04/22 03:24:11;;;;;;;3.70;3.20;;;6.50;99.90;;;;;;616589;232;26524;-70
2022/04/22 03:26:39;;;;;;;4.20;2.80;;;6.60;99.90;;;;;;616089;233;26655;-70
2022/04/22 03:29:06;;;;;;;6.15;2.87;;;6.50;99.90;;;;;;615918;233;26863;-69
2022/04/22 03:31:34;;;;;;;3.30;3.00;;;6.50;99.90;;;;;;615952;233;26609;-70
2022/04/22 03:34:01;;;;;;;3.42;2.85;;;6.50;99.90;;;;;;615929;232;26626;-71
2022/04/22 03:36:28;;;;;;;3.72;3.12;;;6.50;99.90;;;;;;615920;232;26871;-70
2022/04/22 03:38:55;;;;;;;3.00;2.70;;;6.40;99.90;;;;;;615935;233;26880;-71
2022/04/22 03:41:23;;;;;;;2.83;2.62;;;6.40;99.90;;;;;;615965;233;26565;-70
2022/04/22 03:43:50;;;;;;;3.30;3.00;;;6.40;99.90;;;;;;615770;232;26601;-70
2022/04/22 03:46:18;;;;;;;3.10;2.70;;;6.40;99.90;;;;;;615681;234;26578;-70
2022/04/22 03:48:46;;;;;;;3.45;2.97;;;6.30;99.90;;;;;;615621;233;26584;-70
2022/04/22 03:51:13;;;;;;;3.55;2.75;;;6.30;99.90;;;;;;615495;234;26564;-71
2022/04/22 03:53:41;;;;;;;2.78;2.58;;;6.30;99.90;;;;;;615629;234;26813;-70
2022/04/22 03:58:40;;;;;;;3.78;2.80;;;6.40;99.90;;;;;;615650;233;26564;-70
2022/04/22 04:01:07;;;;;;;3.28;2.90;;;6.40;99.90;;;;;;615653;234;26529;-70
2022/04/22 04:03:35;;;;;;;3.58;2.83;;;6.50;99.90;;;;;;615737;234;26561;-69
2022/04/22 04:06:03;;;;;;;2.58;2.37;;;6.50;99.90;;;;;;615627;234;26603;-70
2022/04/22 04:08:30;;;;;;;3.08;2.87;;;6.50;99.90;;;;;;615654;233;26564;-70
2022/04/22 04:16:04;;;;;;;2.78;2.58;;;6.40;99.90;;;;;;615619;234;26569;-70
2022/04/22 04:18:32;;;;;;;2.35;2.22;;;6.30;99.90;;;;;;615948;231;26552;-70
2022/04/22 04:23:32;;;;;;;2.90;2.70;;;6.30;99.90;;;;;;616738;232;26645;-70
2022/04/22 04:26:00;;;;;;;2.55;2.35;;;6.30;99.90;;;;;;616474;232;26559;-71
2022/04/22 04:28:28;;;;;;;6.40;2.55;;;6.30;99.90;;;;;;616383;233;26565;-71
2022/04/22 04:30:56;;;;;;;2.62;2.42;;;6.30;99.90;;;;;;616247;233;26551;-71
2022/04/22 04:33:24;;;;;;;2.85;2.65;;;6.30;99.90;;;;;;616213;233;26574;-70
2022/04/22 04:35:51;;;;;;;2.62;2.42;;;6.40;99.90;;;;;;616229;232;26560;-73
2022/04/22 04:38:19;;;;;;;2.65;2.45;;;6.40;99.90;;;;;;615932;232;26891;-69
2022/04/22 04:40:45;;;;;;;2.50;2.30;;;6.40;99.90;;;;;;615889;233;26618;-71
2022/04/22 04:43:12;;;;;;;2.60;2.40;;;6.50;99.90;;;;;;615948;228;26882;-70
2022/04/22 04:45:40;;;;;;;3.83;2.60;;;6.50;99.90;;;;;;615961;232;26601;-70
2022/04/22 04:48:08;;;;;;;3.25;2.95;;;6.60;99.90;;;;;;615894;232;26644;-71
2022/04/22 04:50:35;;;;;;;2.62;2.30;;;6.60;99.90;;;;;;615940;233;26662;-71
2022/04/22 04:53:03;;;;;;;3.00;2.42;;;6.60;99.90;;;;;;615968;232;26621;-69
2022/04/22 04:55:30;;;;;;;2.40;2.20;;;6.70;99.90;;;;;;615779;233;26797;-70
2022/04/22 04:57:57;;;;;;;3.60;2.60;;;6.80;99.90;;;;;;615581;234;26588;-71
2022/04/22 05:00:24;;;;;;;2.35;2.00;;;6.80;99.90;;;;;;615600;233;26568;-70
2022/04/22 05:02:52;;;;;;;2.25;2.15;;;6.90;99.90;;;;;;615633;234;26568;-72
2022/04/22 05:05:20;;;;;;;2.50;2.30;;;7.20;99.90;;;;;;615624;233;26562;-71
2022/04/22 05:07:49;;;;;;;2.60;2.40;;;7.30;99.90;;;;;;615635;234;26832;-70
2022/04/22 05:10:16;;;;;;;2.72;2.53;;;7.30;99.90;;;;;;615611;233;26571;-72
2022/04/22 05:12:44;;;;;;;2.37;2.17;;;7.40;99.90;;;;;;615579;233;26568;-70
2022/04/22 05:15:12;;;;;;;2.25;2.15;;;7.40;99.90;;;;;;615482;234;26582;-72
2022/04/22 05:17:40;;;;;;;2.65;2.45;;;7.40;99.90;;;;;;615581;233;27000;-72
2022/04/22 05:20:07;;;;;;;2.37;2.20;;;7.50;99.50;;;;;;615596;234;26582;-71
2022/04/22 05:22:35;;;;;;;2.50;2.15;;;7.60;99.90;;;;;;615651;233;26581;-71
2022/04/22 05:25:04;;;;;;;2.22;2.12;;;7.60;99.90;;;;;;615604;233;26786;-70
2022/04/22 05:27:31;;;;;;;2.58;2.37;;;7.80;99.80;;;;;;615544;234;26564;-71
2022/04/22 05:32:47;;;;;;;2.25;2.08;;;8.00;99.90;;;;;;612878;233;26625;-71
2022/04/22 05:35:14;;;;;;;2.30;2.08;;;8.10;98.40;;;;;;616735;232;26986;-70
2022/04/22 05:37:45;;;;;;;2.50;2.30;;;8.10;99.90;;;;;;616610;232;26599;-70
2022/04/22 05:40:14;;;;;;;2.65;2.25;;;8.20;98.90;;;;;;616398;232;26781;-71
2022/04/22 05:42:41;;;;;;;2.42;1.95;;;8.20;98.70;;;;;;616296;233;26567;-71
2022/04/22 05:45:08;;;;;;;2.17;1.98;;;8.20;99.80;;;;;;616265;232;26810;-71
2022/04/22 05:47:35;;;;;;;2.97;1.92;;;8.20;99.00;;;;;;616224;233;26588;-71
2022/04/22 05:50:04;;;;;;;2.40;2.30;;;8.00;99.60;;;;;;615896;228;26855;-70
2022/04/22 05:52:30;;;;;;;2.00;1.90;;;7.90;99.90;;;;;;615905;231;27244;-70
2022/04/22 05:55:02;;;;;;;2.40;2.30;;;8.10;99.10;;;;;;615791;233;26608;-71
2022/04/22 05:57:26;;;;;;;2.22;2.00;;;8.30;99.90;;;;;;615527;233;26633;-70
2022/04/22 05:59:53;;;;;;;2.20;2.00;;;8.30;99.90;;;;;;615943;232;26630;-71
2022/04/22 06:02:20;;;;;;;1.95;1.85;;;8.40;99.10;;;;;;615952;233;26609;-69
2022/04/22 06:04:47;;;;;;;1.98;1.87;;;8.40;99.30;;;;;;615949;232;26848;-70
2022/04/22 06:07:14;;;;;;;2.47;2.03;;;8.70;98.40;;;;;;615754;232;26584;-72
2022/04/22 06:12:15;;;;;;;2.72;2.40;;;8.60;97.30;;;;;;615651;233;26592;-71
2022/04/22 06:14:44;;;;;;;2.30;2.10;;;8.60;97.20;;;;;;615598;233;26563;-69
2022/04/22 06:17:10;;;;;;;2.20;2.10;;;8.30;98.50;;;;;;615500;234;26584;-71
2022/04/22 06:19:38;;;;;;;2.25;2.03;;;8.20;97.40;;;;;;615584;234;27330;-70
2022/04/22 06:22:05;;;;;;;2.00;1.90;;;8.20;97.40;;;;;;615703;233;26812;-71
2022/04/22 06:24:32;;;;;;;5.25;2.37;;;8.40;98.80;;;;;;615649;234;26577;-72
2022/04/22 06:26:59;;;;;;;5.62;2.53;;;8.70;98.40;;;;;;615721;234;26885;-73
2022/04/22 06:29:27;;;;;;;2.22;2.05;;;9.10;98.50;;;;;;615725;234;26553;-72
2022/04/22 06:31:54;;;;;;;2.20;2.05;;;9.50;98.10;;;;;;615639;234;26591;-72
2022/04/22 06:34:23;;;;;;;3.53;2.40;;;9.70;96.40;;;;;;615562;234;26584;-70
2022/04/22 06:36:51;;;;;;;2.92;2.17;;;9.80;96.20;;;;;;615511;234;26596;-71
2022/04/22 06:39:19;;;;;;;2.62;2.42;;;9.80;96.20;;;;;;615573;233;26574;-73
2022/04/22 06:46:53;;;;;;;6.30;2.10;;;10.00;93.50;;;;;;616544;232;26656;-73
2022/04/22 06:49:21;;;;;;;3.65;2.10;;;10.10;96.00;;;;;;616439;232;26591;-68
2022/04/22 06:51:48;;;;;;;3.78;2.37;;;10.10;96.00;;;;;;616344;232;27244;-69
2022/04/22 06:54:16;;;;;;;2.67;2.37;;;10.20;95.20;;;;;;616216;232;26856;-67
2022/04/22 06:56:45;;;;;;;2.40;2.20;;;10.40;94.70;;;;;;616210;233;26592;-68
2022/04/22 06:59:12;;;;;;;2.65;2.35;;;10.50;95.50;;;;;;616545;233;26557;-68
2022/04/22 07:01:40;;;;;;;2.28;2.10;;;10.50;95.20;;;;;;616332;232;26612;-68
2022/04/22 07:04:08;;;;;;;2.15;2.05;;;10.50;94.70;;;;;;616310;232;26589;-67
2022/04/22 07:06:35;;;;;;;4.53;2.00;;;10.50;94.70;;;;;;616299;228;26607;-67
2022/04/22 07:09:04;;;;;;;2.45;2.25;;;10.70;93.00;;;;;;616283;233;26814;-67
2022/04/22 07:11:30;;;;;;;2.58;1.95;;;11.10;94.30;;;;;;616262;233;26624;-68
2022/04/22 07:13:59;;;;;;;1.95;1.85;;;11.10;93.40;;;;;;616210;232;26619;-68
2022/04/22 07:16:26;;;;;;;2.40;2.20;;;11.10;93.20;;;;;;615861;233;26627;-67
2022/04/22 07:18:53;;;;;;;2.28;2.08;;;11.10;93.50;;;;;;617477;231;26615;-67
2022/04/22 07:21:22;;;;;;;2.87;2.03;;;10.90;93.00;;;;;;614605;231;26610;-69
2022/04/22 07:23:50;;;;;;;3.28;2.20;;;11.30;91.80;;;;;;613654;231;26576;-70
2022/04/22 07:26:17;;;;;;;4.15;2.10;;;11.30;91.80;;;;;;615266;231;26855;-69
2022/04/22 07:28:46;;;;;;;4.55;2.42;;;11.40;90.90;;;;;;615177;231;26532;-70
2022/04/22 07:31:13;;;;;;;2.10;2.00;;;11.50;91.10;;;;;;614828;231;26576;-69
2022/04/22 07:33:40;;;;;;;4.22;2.30;;;11.60;91.50;;;;;;617965;231;26801;-67
2022/04/22 07:36:08;;;;;;;4.72;2.58;;;11.80;90.80;;;;;;614215;231;26621;-67
2022/04/22 07:38:35;;;;;;;2.45;2.25;;;11.80;91.40;;;;;;612481;233;26856;-66
2022/04/22 07:41:03;;;;;;;4.53;2.47;;;11.70;92.70;;;;;;613937;234;26587;-66
2022/04/22 07:48:36;;;;;;;4.28;2.20;;;11.80;91.80;;;;;;618756;231;26608;-67
2022/04/22 07:51:03;;;;;;;3.62;2.42;;;11.80;91.80;;;;;;613873;234;26624;-67
2022/04/22 07:53:31;;;;;;;2.60;2.40;;;11.50;91.70;;;;;;616067;231;26544;-67
2022/04/22 07:55:58;;;;;;;3.25;2.58;;;11.50;91.70;;;;;;617067;228;26568;-67
2022/04/22 07:58:26;;;;;;;4.35;2.30;;;11.40;92.40;;;;;;621122;230;26577;-66
2022/04/22 08:00:52;;;;;;;2.33;2.12;;;11.40;91.50;;;;;;617277;231;26796;-67
2022/04/22 08:03:20;;;;;;;2.47;2.28;;;11.40;92.40;;;;;;616556;230;26568;-67
2022/04/22 08:05:47;;;;;;;3.70;2.35;;;11.40;92.10;;;;;;615758;231;26845;-67
2022/04/22 08:08:14;;;;;;;3.15;2.60;;;11.50;92.40;;;;;;617501;228;26625;-68
2022/04/22 08:10:42;;;;;;;2.85;2.40;;;11.70;92.30;;;;;;618278;230;26813;-67
2022/04/22 08:13:09;;;;;;;2.37;2.17;;;11.70;92.20;;;;;;617317;230;26791;-67
2022/04/22 08:15:36;;;;;;;3.10;2.58;;;12.10;92.80;;;;;;615883;228;26627;-67
2022/04/22 08:18:04;;;;;;;2.47;2.28;;;12.30;92.10;;;;;;616651;230;27167;-67
2022/04/22 08:20:31;;;;;;;2.67;2.47;;;12.40;92.00;;;;;;615675;231;26559;-67
2022/04/22 08:22:59;;;;;;;3.85;2.45;;;12.60;91.80;;;;;;615617;231;26556;-67
2022/04/22 08:25:27;;;;;;;2.30;2.20;;;12.60;91.80;;;;;;615057;231;26624;-67
2022/04/22 08:27:54;;;;;;;3.17;2.85;;;12.70;92.00;;;;;;617502;230;26822;-67
2022/04/22 08:30:21;;;;;;;3.10;2.80;;;12.90;92.40;;;;;;615530;228;26572;-67
2022/04/22 08:32:48;;;;;;;2.70;2.50;;;13.00;92.50;;;;;;616029;226;27205;-66
2022/04/22 08:35:15;;;;;;;2.60;2.37;;;12.80;90.50;;;;;;615592;231;26573;-66
2022/04/22 08:37:45;;;;;;;2.62;2.40;;;12.60;92.20;;;;;;616503;231;26592;-67
2022/04/22 08:40:11;;;;;;;2.72;2.53;;;12.70;92.40;;;;;;612910;233;26560;-66
2022/04/22 08:42:38;;;;;;;2.92;2.72;;;12.70;92.40;;;;;;614971;232;26595;-65
2022/04/22 08:45:06;;;;;;;2.78;2.58;;;12.70;91.90;;;;;;615541;233;26580;-66
2022/04/22 08:50:13;;;;;;;2.87;2.53;;;12.90;92.10;;;;;;615246;234;26582;-67
2022/04/22 08:52:37;;;;;;;2.72;2.53;;;13.00;91.70;;;;;;617330;231;26552;-66
2022/04/22 08:55:06;;;;;;;2.60;2.40;;;13.00;91.60;;;;;;615999;231;26617;-66
2022/04/22 08:57:32;;;;;;;2.50;2.30;;;13.10;91.10;;;;;;614900;233;26552;-66
2022/04/22 09:00:01;;;;;;;2.65;2.30;;;13.30;91.20;;;;;;613995;231;26606;-66
2022/04/22 09:02:28;;;;;;;2.78;2.60;;;13.30;91.40;;;;;;615253;233;26532;-67
2022/04/22 09:04:56;;;;;;;63.42;12.85;;;13.40;91.00;;;;;;616262;228;26624;-69
2022/04/22 09:07:26;;;;;;;1055.55;119.15;;;13.50;90.30;;;;;;624171;230;26639;-68
2022/04/22 09:09:53;;;;;;;1999.90;300.90;;;13.50;90.30;;;;;;615512;230;26801;-69
2022/04/22 09:12:22;;;;;;;120.25;26.08;;;13.60;90.90;;;;;;620584;231;26547;-66
2022/04/22 09:14:49;;;;;;;5.28;4.05;;;13.80;91.00;;;;;;617228;230;26637;-67
2022/04/22 09:17:17;;;;;;;12.68;5.60;;;13.80;91.90;;;;;;619732;230;27063;-65
2022/04/22 09:19:44;;;;;;;59.72;14.87;;;13.90;91.10;;;;;;616165;231;26787;-68
2022/04/22 09:22:18;;;;;;;38.47;11.68;;;13.80;90.60;;;;;;614029;231;26653;-67
2022/04/22 09:25:00;;;;;;;35.67;10.55;;;13.80;90.70;;;;;;612553;235;26568;-67
2022/04/22 09:27:37;;;;;;;26.62;9.65;;;13.90;91.20;;;;;;612668;230;26588;-67
2022/04/22 09:30:07;;;;;;;20.42;6.18;;;13.80;90.90;;;;;;615304;231;26572;-65
2022/04/22 09:32:37;;;;;;;5.90;3.78;;;13.90;91.60;;;;;;618269;231;26576;-68
2022/04/22 09:35:10;;;;;;;34.00;9.80;;;13.80;91.70;;;;;;613699;230;26567;-67
2022/04/22 09:42:50;;;;;;;10.13;4.97;;;13.70;92.70;;;;;;612429;235;26821;-67
2022/04/22 09:45:17;;;;;;;8.65;4.50;;;13.90;92.70;;;;;;617315;231;26638;-68
2022/04/22 09:47:45;;;;;;;7.68;4.15;;;14.20;92.70;;;;;;617729;231;26631;-68
2022/04/22 09:50:12;;;;;;;7.95;4.28;;;14.10;92.60;;;;;;611545;234;26616;-69
2022/04/22 09:52:46;;;;;;;4.30;3.30;;;14.40;92.20;;;;;;617307;231;26523;-68
2022/04/22 09:55:07;;;;;;;5.60;3.80;;;14.40;92.40;;;;;;616454;231;27178;-67
2022/04/22 09:57:55;;;;;;;4.70;3.67;;;14.90;91.30;;;;;;615228;231;26584;-67
2022/04/22 10:00:22;;;;;;;4.35;3.25;;;14.80;91.20;;;;;;614936;234;26559;-69
2022/04/22 10:02:50;;;;;;;3.70;3.30;;;14.80;92.30;;;;;;613642;233;26824;-68
2022/04/22 10:05:19;;;;;;;5.82;3.25;;;15.00;90.90;;;;;;613796;232;26569;-69
2022/04/22 10:07:50;;;;;;;8.50;4.47;;;15.10;91.10;;;;;;618886;231;26622;-67
2022/04/22 10:10:17;;;;;;;9.32;4.25;;;15.20;91.20;;;;;;613065;231;26584;-67
2022/04/22 10:12:45;;;;;;;6.57;4.25;;;14.90;90.60;;;;;;619585;231;26579;-67
2022/04/22 10:15:14;;;;;;;8.18;4.60;;;14.80;91.30;;;;;;615477;231;26617;-67
2022/04/22 10:17:44;;;;;;;10.73;4.75;;;14.80;91.30;;;;;;612773;232;26642;-68
2022/04/22 10:20:10;;;;;;;5.87;3.90;;;14.90;91.10;;;;;;613423;233;26862;-66
2022/04/22 10:22:38;;;;;;;3.75;3.45;;;14.90;91.40;;;;;;613388;232;26566;-67
2022/04/22 10:25:07;;;;;;;5.78;3.85;;;15.00;91.10;;;;;;613074;228;26564;-66
2022/04/22 10:27:36;;;;;;;4.47;3.62;;;15.00;91.30;;;;;;612902;233;26652;-67
2022/04/22 10:30:05;;;;;;;4.18;3.45;;;14.90;91.30;;;;;;613025;233;26616;-66
2022/04/22 10:32:33;;;;;;;3.85;3.50;;;14.90;91.10;;;;;;613002;234;26604;-66
2022/04/22 10:34:59;;;;;;;4.62;3.47;;;14.90;91.80;;;;;;612881;234;26841;-66
2022/04/22 10:37:26;;;;;;;3.75;3.45;;;14.90;91.40;;;;;;612769;231;26600;-67
2022/04/22 10:39:54;;;;;;;4.05;3.67;;;15.00;91.60;;;;;;615462;230;26768;-67
2022/04/22 10:42:36;;;;;;;3.97;3.67;;;15.00;91.50;;;;;;614462;230;26584;-66
2022/04/22 10:47:51;;;;;;;6.15;3.85;;;15.00;91.20;;;;;;614286;233;26589;-67
2022/04/22 10:50:25;;;;;;;4.30;3.90;;;14.90;91.20;;;;;;618670;231;26572;-68
2022/04/22 10:52:56;;;;;;;4.07;3.78;;;14.90;91.60;;;;;;617754;230;26864;-68
2022/04/22 10:55:22;;;;;;;4.65;3.85;;;15.00;91.80;;;;;;614612;231;26580;-67
2022/04/22 10:57:51;;;;;;;4.55;3.83;;;15.00;91.10;;;;;;615310;231;26668;-68
2022/04/22 11:00:28;;;;;;;4.40;4.00;;;14.90;91.10;;;;;;612264;234;26797;-68
2022/04/22 11:03:01;;;;;;;4.30;3.90;;;15.00;91.30;;;;;;625282;230;26570;-68
2022/04/22 11:05:35;;;;;;;3.65;3.37;;;15.10;91.10;;;;;;618242;231;26614;-69
2022/04/22 11:08:05;;;;;;;4.68;4.28;;;15.10;91.10;;;;;;614597;234;26623;-69
2022/04/22 11:11:02;;;;;;;4.70;4.20;;;15.10;91.00;;;;;;615556;233;26548;-68
2022/04/22 11:13:33;;;;;;;4.03;3.72;;;15.00;90.80;;;;;;611497;231;26636;-69
2022/04/22 11:16:06;;;;;;;4.72;3.92;;;14.90;91.50;;;;;;621935;230;26564;-69
2022/04/22 11:18:34;;;;;;;4.05;3.65;;;14.90;91.40;;;;;;616241;231;26556;-68
2022/04/22 11:21:02;;;;;;;4.20;3.83;;;14.80;91.00;;;;;;621744;231;26598;-69
2022/04/22 11:23:34;;;;;;;5.00;4.60;;;14.80;91.00;;;;;;621064;231;27137;-68
2022/04/22 11:26:01;;;;;;;5.12;4.70;;;14.70;91.20;;;;;;617025;230;26803;-68
2022/04/22 11:28:29;;;;;;;4.72;4.35;;;14.70;91.30;;;;;;616196;231;26570;-68
2022/04/22 11:30:56;;;;;;;5.00;4.55;;;14.70;91.80;;;;;;615907;233;26795;-67
2022/04/22 11:33:23;;;;;;;4.57;4.20;;;14.60;91.50;;;;;;618083;231;26554;-68
2022/04/22 11:35:53;;;;;;;4.40;4.10;;;14.60;91.40;;;;;;616561;226;26562;-67
2022/04/22 11:38:18;;;;;;;4.93;4.53;;;14.40;91.60;;;;;;615696;233;26801;-68
2022/04/22 11:40:47;;;;;;;5.47;4.95;;;14.40;92.20;;;;;;620074;231;26569;-66
2022/04/22 11:43:14;;;;;;;4.93;4.53;;;14.40;92.20;;;;;;621771;230;26820;-67
2022/04/22 11:45:40;;;;;;;4.72;4.32;;;14.30;91.90;;;;;;616797;230;26607;-66
2022/04/22 11:48:09;;;;;;;5.35;4.82;;;14.30;91.80;;;;;;619193;231;26571;-66
2022/04/22 11:50:38;;;;;;;5.80;5.10;;;14.30;91.80;;;;;;613570;231;26574;-66
2022/04/22 11:53:04;;;;;;;4.75;4.35;;;14.20;91.80;;;;;;614919;228;26602;-66
2022/04/22 11:55:31;;;;;;;4.62;4.30;;;14.00;92.00;;;;;;612793;234;26763;-66
2022/04/22 11:57:58;;;;;;;5.15;4.72;;;14.00;92.70;;;;;;615273;233;26570;-67
2022/04/22 12:05:32;;;;;;;5.87;5.37;;;13.60;93.10;;;;;;617190;231;26839;-66
2022/04/22 12:08:01;;;;;;;6.15;5.55;;;13.60;93.10;;;;;;615371;231;26640;-65
2022/04/22 12:10:29;;;;;;;5.95;5.37;;;13.50;93.60;;;;;;615620;231;26563;-64
2022/04/22 12:12:57;;;;;;;6.03;5.53;;;13.50;93.60;;;;;;618838;231;26797;-65
2022/04/22 12:15:24;;;;;;;7.50;6.80;;;13.50;94.20;;;;;;615056;228;26635;-66
2022/04/22 12:17:51;;;;;;;6.35;5.75;;;13.40;93.90;;;;;;615729;231;26829;-65
2022/04/22 12:20:18;;;;;;;6.18;5.68;;;13.40;94.10;;;;;;620095;231;26576;-66
2022/04/22 12:22:45;;;;;;;6.18;5.68;;;13.30;94.00;;;;;;620089;231;26802;-66
2022/04/22 12:25:16;;;;;;;6.85;5.65;;;13.30;94.10;;;;;;616163;231;26624;-64
2022/04/22 12:27:43;;;;;;;7.10;6.45;;;13.30;94.60;;;;;;617656;231;26629;-67
2022/04/22 12:30:10;;;;;;;7.47;6.82;;;13.40;94.00;;;;;;623922;231;26838;-68
2022/04/22 12:32:38;;;;;;;7.28;6.57;;;13.60;93.80;;;;;;622802;230;26512;-69
2022/04/22 12:35:10;;;;;;;7.93;7.00;;;13.60;93.70;;;;;;614945;231;26663;-69
2022/04/22 12:37:37;;;;;;;6.93;6.30;;;14.30;92.70;;;;;;614704;231;26592;-69
2022/04/22 12:40:07;;;;;;;6.18;5.68;;;14.60;92.40;;;;;;616017;231;26570;-68
2022/04/22 12:42:36;;;;;;;17.17;9.80;;;14.60;92.30;;;;;;617045;230;26648;-69
2022/04/22 12:52:55;;;;;;;10.65;7.28;;;15.50;90.80;;;;;;613628;233;26614;-70
2022/04/22 12:55:23;;;;;;;11.15;7.40;;;15.70;90.50;;;;;;613023;235;26644;-71
2022/04/22 12:57:58;;;;;;;10.25;7.82;;;15.70;90.50;;;;;;612951;234;26657;-72
2022/04/22 13:00:26;;;;;;;10.43;7.00;;;15.90;90.00;;;;;;613197;230;26560;-70
2022/04/22 13:02:53;;;;;;;9.90;7.37;;;16.30;90.20;;;;;;614713;231;26579;-71
2022/04/22 13:05:23;;;;;;;11.65;7.70;;;16.20;90.10;;;;;;614196;230;26635;-70
2022/04/22 13:07:50;;;;;;;7.68;6.82;;;16.90;86.80;;;;;;616813;231;26564;-70
2022/04/22 13:10:20;;;;;;;10.80;7.93;;;16.90;86.80;;;;;;613727;231;26569;-70
2022/04/22 13:12:46;;;;;;;10.00;6.82;;;17.00;86.30;;;;;;620321;230;26629;-70
2022/04/22 13:15:18;;;;;;;9.77;7.75;;;17.20;86.40;;;;;;615424;233;26940;-69
2022/04/22 13:17:45;;;;;;;9.27;7.20;;;16.90;87.80;;;;;;619343;230;26615;-70
2022/04/22 13:20:13;;;;;;;10.18;6.60;;;16.90;87.60;;;;;;615219;231;26544;-71
2022/04/22 13:22:40;;;;;;;8.25;6.40;;;16.60;86.00;;;;;;617762;231;26524;-70
2022/04/22 13:25:10;;;;;;;9.90;7.10;;;16.50;87.30;;;;;;616004;233;26972;-70
2022/04/22 13:27:35;;;;;;;8.60;6.95;;;16.50;86.70;;;;;;615861;234;26556;-69
2022/04/22 13:30:03;;;;;;;7.37;6.05;;;16.50;85.70;;;;;;616026;233;26956;-69
2022/04/22 13:32:29;;;;;;;8.48;7.00;;;16.20;85.50;;;;;;615948;234;26529;-70
2022/04/22 13:34:56;;;;;;;7.22;6.53;;;16.00;88.30;;;;;;615978;233;27006;-70
2022/04/22 13:37:27;;;;;;;6.85;6.18;;;15.80;87.00;;;;;;615981;234;26565;-70
2022/04/22 13:39:55;;;;;;;7.28;6.57;;;15.70;86.50;;;;;;612579;231;26603;-71
2022/04/22 13:42:23;;;;;;;6.82;6.03;;;15.30;88.10;;;;;;612432;234;26611;-72
2022/04/22 13:52:30;;;;;;;6.87;5.93;;;14.70;89.20;;;;;;615569;231;26633;-71
2022/04/22 13:54:57;;;;;;;6.35;5.70;;;14.50;89.40;;;;;;621522;231;27292;-71
2022/04/22 13:57:24;;;;;;;6.43;5.80;;;14.40;90.20;;;;;;615525;231;26571;-70
2022/04/22 13:59:52;;;;;;;6.85;6.18;;;14.30;89.80;;;;;;614086;231;26797;-71
2022/04/22 14:02:20;;;;;;;6.87;6.18;;;14.50;90.80;;;;;;613731;231;26621;-71
2022/04/22 14:04:48;;;;;;;7.40;6.18;;;14.50;90.50;;;;;;613018;234;26630;-70